createdAt,value
2023-05-29T00:00:34.277Z,37.37
2023-05-29T00:03:02.887Z,37.56
2023-05-29T00:05:29.635Z,37.58
2023-05-29T00:07:56.749Z,37.54
2023-05-29T00:10:23.572Z,37.36
2023-05-29T00:12:50.150Z,37.10
2023-05-29T00:15:16.852Z,37.28
2023-05-29T00:17:44.402Z,37.22
2023-05-29T00:20:13.130Z,37.33
2023-05-29T00:26:27.459Z,37.51
2023-05-29T00:28:54.205Z,37.42
2023-05-29T00:31:21.369Z,37.43
2023-05-29T00:33:48.053Z,37.44
2023-05-29T00:36:14.668Z,37.39
2023-05-29T00:38:41.509Z,37.32
2023-05-29T00:41:08.185Z,37.52
2023-05-29T00:43:36.023Z,37.29
2023-05-29T00:46:02.583Z,37.40
2023-05-29T00:48:29.216Z,37.18
2023-05-29T00:50:56.325Z,37.51
2023-05-29T00:53:24.159Z,37.21
2023-05-29T00:55:51.735Z,37.08
2023-05-29T00:58:18.416Z,37.29
2023-05-29T01:00:46.033Z,37.39
2023-05-29T01:03:15.980Z,37.21
2023-05-29T01:05:42.756Z,37.23
2023-05-29T01:08:10.172Z,37.08
2023-05-29T01:10:36.902Z,37.06
2023-05-29T01:13:07.292Z,37.13
2023-05-29T01:15:33.800Z,37.30
2023-05-29T01:18:18.342Z,37.31
2023-05-29T01:21:06.497Z,37.07
2023-05-29T01:23:58.015Z,37.44
2023-05-29T01:26:46.553Z,37.26
2023-05-29T01:29:16.624Z,37.46
2023-05-29T01:31:44.836Z,37.43
2023-05-29T01:34:11.580Z,37.34
2023-05-29T01:36:38.504Z,37.16
2023-05-29T01:39:06.598Z,37.03
2023-05-29T01:41:34.265Z,37.18
2023-05-29T01:44:04.401Z,37.06
2023-05-29T01:46:31.020Z,37.24
2023-05-29T01:48:57.729Z,37.42
2023-05-29T01:51:24.582Z,36.98
2023-05-29T01:53:51.181Z,36.92
2023-05-29T01:56:18.173Z,36.98
2023-05-29T01:58:45.530Z,37.06
2023-05-29T02:01:12.302Z,36.92
2023-05-29T02:03:38.950Z,37.23
2023-05-29T02:06:05.698Z,37.13
2023-05-29T02:08:32.270Z,37.00
2023-05-29T02:10:58.848Z,36.99
2023-05-29T02:13:25.580Z,37.20
2023-05-29T02:15:52.116Z,37.33
2023-05-29T02:18:18.692Z,36.88
2023-05-29T02:20:45.794Z,37.21
2023-05-29T02:23:13.008Z,37.24
2023-05-29T02:25:39.923Z,37.03
2023-05-29T02:28:06.631Z,36.89
2023-05-29T02:30:33.340Z,36.87
2023-05-29T02:32:59.993Z,37.04
2023-05-29T02:35:27.064Z,37.13
2023-05-29T02:37:54.290Z,37.05
2023-05-29T02:40:21.214Z,37.15
2023-05-29T02:42:48.271Z,37.01
2023-05-29T02:45:14.809Z,36.96
2023-05-29T02:47:41.424Z,37.22
2023-05-29T02:50:09.558Z,37.08
2023-05-29T02:52:37.767Z,36.96
2023-05-29T02:55:06.794Z,36.84
2023-05-29T02:57:33.840Z,36.87
2023-05-29T03:00:01.885Z,36.78
2023-05-29T03:02:28.720Z,37.10
2023-05-29T03:04:55.656Z,36.94
2023-05-29T03:07:22.324Z,36.70
2023-05-29T03:09:48.853Z,36.82
2023-05-29T03:12:15.549Z,37.15
2023-05-29T03:14:42.208Z,37.00
2023-05-29T03:17:08.769Z,37.01
2023-05-29T03:19:35.431Z,37.32
2023-05-29T03:22:02.124Z,36.92
2023-05-29T03:24:28.663Z,37.05
2023-05-29T03:26:55.791Z,36.97
2023-05-29T03:29:22.555Z,36.84
2023-05-29T03:31:49.521Z,37.14
2023-05-29T03:34:16.428Z,36.83
2023-05-29T03:36:43.730Z,36.78
2023-05-29T03:39:10.346Z,36.96
2023-05-29T03:41:36.900Z,36.80
2023-05-29T03:44:03.616Z,37.06
2023-05-29T03:46:31.286Z,37.00
2023-05-29T03:48:58.046Z,37.22
2023-05-29T03:51:24.714Z,36.80
2023-05-29T03:53:51.206Z,36.71
2023-05-29T03:56:17.781Z,37.06
2023-05-29T03:58:44.709Z,37.01
2023-05-29T04:01:11.432Z,37.00
2023-05-29T04:03:39.051Z,36.93
2023-05-29T04:06:06.016Z,36.67
2023-05-29T04:08:32.638Z,37.10
2023-05-29T04:10:59.378Z,36.76
2023-05-29T04:13:25.937Z,36.94
2023-05-29T04:15:53.861Z,36.76
2023-05-29T04:18:21.526Z,36.74
2023-05-29T04:20:48.465Z,36.77
2023-05-29T04:23:15.534Z,36.67
2023-05-29T04:25:42.141Z,36.92
2023-05-29T04:28:08.724Z,37.10
2023-05-29T04:30:35.567Z,36.74
2023-05-29T04:33:02.285Z,36.74
2023-05-29T04:35:31.734Z,36.92
2023-05-29T04:37:59.063Z,36.99
2023-05-29T04:40:25.747Z,36.69
2023-05-29T04:42:53.721Z,36.90
2023-05-29T04:45:24.577Z,36.92
2023-05-29T04:47:53.829Z,36.72
2023-05-29T04:50:20.623Z,36.48
2023-05-29T04:52:47.158Z,36.62
2023-05-29T04:55:13.750Z,36.76
2023-05-29T04:57:41.729Z,36.79
2023-05-29T05:00:14.929Z,36.51
2023-05-29T05:02:44.178Z,36.44
2023-05-29T05:05:11.736Z,36.36
2023-05-29T05:07:38.516Z,36.54
2023-05-29T05:10:05.700Z,36.42
2023-05-29T05:12:32.394Z,36.77
2023-05-29T05:14:58.985Z,36.50
2023-05-29T05:17:25.754Z,36.66
2023-05-29T05:19:55.792Z,36.73
2023-05-29T05:22:22.387Z,36.79
2023-05-29T05:24:48.977Z,36.67
2023-05-29T05:27:15.581Z,36.60
2023-05-29T05:29:42.369Z,36.62
2023-05-29T05:32:08.992Z,36.38
2023-05-29T05:34:35.912Z,36.39
2023-05-29T05:37:03.830Z,36.47
2023-05-29T05:39:30.793Z,36.75
2023-05-29T05:41:57.404Z,36.71
2023-05-29T05:44:24.014Z,36.80
2023-05-29T05:46:50.552Z,36.79
2023-05-29T05:49:17.142Z,36.57
2023-05-29T05:51:43.840Z,36.84
2023-05-29T05:54:10.568Z,36.73
2023-05-29T05:56:37.107Z,36.86
2023-05-29T05:59:03.754Z,36.64
2023-05-29T06:01:30.330Z,36.70
2023-05-29T06:03:56.981Z,36.68
2023-05-29T06:06:23.608Z,36.54
2023-05-29T06:08:50.227Z,36.43
2023-05-29T06:11:16.849Z,36.79
2023-05-29T06:13:43.650Z,36.50
2023-05-29T06:16:10.315Z,36.48
2023-05-29T06:18:36.891Z,36.65
2023-05-29T06:21:04.006Z,36.26
2023-05-29T06:23:30.966Z,36.56
2023-05-29T06:25:57.738Z,36.52
2023-05-29T06:28:24.298Z,36.56
2023-05-29T06:30:50.946Z,36.38
2023-05-29T06:33:17.561Z,36.58
2023-05-29T06:35:44.118Z,36.35
2023-05-29T06:38:10.753Z,36.32
2023-05-29T06:40:37.298Z,36.44
2023-05-29T06:43:03.997Z,36.48
2023-05-29T06:45:30.624Z,36.34
2023-05-29T06:47:57.196Z,36.23
2023-05-29T06:50:23.864Z,36.43
2023-05-29T06:52:50.464Z,36.76
2023-05-29T06:55:17.068Z,36.37
2023-05-29T06:57:43.613Z,36.67
2023-05-29T07:00:12.184Z,36.51
2023-05-29T07:02:39.192Z,36.61
2023-05-29T07:05:06.103Z,36.58
2023-05-29T07:07:32.923Z,36.03
2023-05-29T07:09:59.521Z,36.08
2023-05-29T07:12:26.295Z,35.77
2023-05-29T07:14:52.840Z,35.89
2023-05-29T07:17:19.641Z,35.56
2023-05-29T07:19:46.373Z,35.45
2023-05-29T07:22:13.038Z,35.43
2023-05-29T07:24:39.690Z,35.60
2023-05-29T07:27:06.736Z,35.71
2023-05-29T07:29:33.752Z,35.76
2023-05-29T07:32:00.441Z,35.52
2023-05-29T07:34:27.013Z,35.47
2023-05-29T07:37:07.723Z,35.67
2023-05-29T07:39:35.951Z,35.76
2023-05-29T07:42:03.751Z,35.83
2023-05-29T07:44:30.804Z,35.46
2023-05-29T07:46:57.591Z,35.47
2023-05-29T07:49:24.722Z,35.60
2023-05-29T07:51:51.407Z,35.95
2023-05-29T07:54:21.766Z,35.78
2023-05-29T07:56:48.388Z,35.53
2023-05-29T07:59:14.908Z,35.75
2023-05-29T08:01:41.585Z,35.50
2023-05-29T08:04:08.226Z,35.40
2023-05-29T08:06:35.393Z,35.62
2023-05-29T08:09:02.748Z,35.40
2023-05-29T08:11:30.172Z,35.11
2023-05-29T08:13:56.843Z,35.44
2023-05-29T08:16:24.153Z,35.45
2023-05-29T08:18:50.914Z,35.52
2023-05-29T08:21:17.700Z,35.15
2023-05-29T08:23:45.295Z,35.23
2023-05-29T08:26:11.875Z,35.34
2023-05-29T08:28:40.096Z,35.28
2023-05-29T08:31:08.257Z,35.38
2023-05-29T08:33:34.930Z,35.30
2023-05-29T08:36:01.854Z,35.09
2023-05-29T08:38:28.663Z,35.18
2023-05-29T08:40:58.191Z,35.00
2023-05-29T08:43:26.802Z,34.95
2023-05-29T08:46:00.234Z,35.22
2023-05-29T08:48:28.826Z,34.89
2023-05-29T08:50:57.265Z,34.83
2023-05-29T08:53:24.825Z,35.03
2023-05-29T08:55:53.602Z,34.93
2023-05-29T08:58:24.624Z,34.76
2023-05-29T09:00:52.491Z,34.88
2023-05-29T09:03:21.306Z,34.79
2023-05-29T09:05:49.709Z,34.64
2023-05-29T09:08:17.509Z,34.77
2023-05-29T09:10:44.731Z,34.79
2023-05-29T09:13:12.633Z,34.71
2023-05-29T09:15:44.448Z,34.75
2023-05-29T09:18:11.974Z,34.52
2023-05-29T09:20:38.723Z,34.58
2023-05-29T09:23:09.945Z,34.51
2023-05-29T09:25:42.461Z,34.50
2023-05-29T09:28:10.228Z,34.48
2023-05-29T09:30:48.235Z,34.22
2023-05-29T09:33:16.380Z,34.08
2023-05-29T09:35:48.518Z,34.45
2023-05-29T09:38:33.449Z,34.81
2023-05-29T09:41:06.801Z,34.74
2023-05-29T09:43:34.389Z,34.36
2023-05-29T09:46:02.627Z,35.21
2023-05-29T09:48:30.684Z,36.38
2023-05-29T09:50:59.286Z,36.90
2023-05-29T09:53:27.223Z,37.62
2023-05-29T09:56:00.329Z,37.70
2023-05-29T09:58:27.511Z,37.98
2023-05-29T10:00:54.587Z,37.86
2023-05-29T10:03:25.487Z,37.78
2023-05-29T10:05:54.516Z,37.52
2023-05-29T10:08:21.740Z,37.91
2023-05-29T10:11:00.242Z,37.36
2023-05-29T10:13:32.434Z,37.54
2023-05-29T10:16:02.018Z,37.96
2023-05-29T10:18:35.204Z,38.02
2023-05-29T10:21:03.281Z,37.54
2023-05-29T10:23:31.059Z,37.84
2023-05-29T10:26:16.667Z,37.95
2023-05-29T10:28:47.857Z,37.60
2023-05-29T10:31:34.113Z,37.97
2023-05-29T10:34:24.614Z,37.59
2023-05-29T10:36:57.528Z,37.38
2023-05-29T10:39:24.138Z,37.57
2023-05-29T10:41:51.426Z,37.51
2023-05-29T10:44:33.735Z,37.43
2023-05-29T10:47:00.421Z,37.41
2023-05-29T10:49:27.402Z,37.20
2023-05-29T10:51:54.081Z,37.05
2023-05-29T10:54:25.276Z,36.91
2023-05-29T10:57:02.202Z,36.85
2023-05-29T10:59:29.964Z,36.92
2023-05-29T11:01:58.507Z,36.74
2023-05-29T11:04:27.458Z,36.92
2023-05-29T11:06:54.082Z,36.77
2023-05-29T11:09:38.511Z,36.72
2023-05-29T11:12:34.521Z,36.50
2023-05-29T11:15:11.152Z,36.40
2023-05-29T11:17:40.763Z,36.32
2023-05-29T11:20:09.564Z,36.46
2023-05-29T11:23:01.837Z,36.55
2023-05-29T11:25:29.376Z,36.47
2023-05-29T11:27:56.101Z,36.30
2023-05-29T11:30:23.007Z,36.58
2023-05-29T11:32:51.194Z,36.47
2023-05-29T11:35:23.122Z,36.27
2023-05-29T11:37:51.346Z,36.51
2023-05-29T11:40:18.077Z,36.51
2023-05-29T11:42:45.795Z,36.61
2023-05-29T11:45:21.281Z,36.36
2023-05-29T11:47:55.828Z,36.40
2023-05-29T11:50:29.469Z,36.23
2023-05-29T11:52:57.820Z,36.30
2023-05-29T11:55:25.973Z,36.36
2023-05-29T11:57:57.966Z,35.98
2023-05-29T12:00:25.227Z,35.78
2023-05-29T12:02:52.934Z,36.05
2023-05-29T12:05:20.581Z,35.72
2023-05-29T12:07:51.424Z,35.67
2023-05-29T12:10:19.739Z,35.87
2023-05-29T12:12:49.987Z,35.40
2023-05-29T12:15:17.702Z,35.48
2023-05-29T12:17:45.180Z,35.61
2023-05-29T12:20:13.747Z,35.49
2023-05-29T12:22:42.897Z,35.29
2023-05-29T12:25:14.864Z,35.53
2023-05-29T12:27:47.352Z,35.30
2023-05-29T12:30:24.179Z,35.31
2023-05-29T12:32:55.696Z,35.55
2023-05-29T12:35:27.170Z,35.45
2023-05-29T12:38:00.871Z,35.63
2023-05-29T12:40:29.589Z,35.44
2023-05-29T12:43:06.383Z,35.24
2023-05-29T12:45:34.407Z,35.35
2023-05-29T12:48:06.612Z,35.07
2023-05-29T12:50:40.782Z,35.19
2023-05-29T12:53:09.157Z,35.38
2023-05-29T12:55:38.180Z,35.41
2023-05-29T12:58:08.445Z,34.93
2023-05-29T13:00:36.525Z,35.21
2023-05-29T13:03:03.703Z,34.85
2023-05-29T13:05:30.421Z,34.67
2023-05-29T13:07:58.042Z,34.82
2023-05-29T13:10:26.065Z,34.97
2023-05-29T13:12:55.952Z,34.98
2023-05-29T13:15:24.229Z,34.93
2023-05-29T13:17:51.810Z,34.89
2023-05-29T13:20:19.194Z,34.78
2023-05-29T13:22:47.525Z,34.33
2023-05-29T13:25:17.078Z,34.51
2023-05-29T13:27:46.753Z,34.63
2023-05-29T13:30:14.703Z,34.70
2023-05-29T13:32:42.228Z,34.32
2023-05-29T13:35:09.889Z,34.49
2023-05-29T13:37:37.871Z,34.45
2023-05-29T13:40:06.047Z,34.08
2023-05-29T13:42:32.977Z,34.16
2023-05-29T13:44:59.557Z,34.04
2023-05-29T13:47:29.760Z,34.30
2023-05-29T13:49:56.433Z,34.38
2023-05-29T13:52:22.997Z,34.28
2023-05-29T13:54:49.740Z,34.14
2023-05-29T13:57:16.321Z,34.20
2023-05-29T13:59:42.899Z,34.12
2023-05-29T14:02:09.696Z,34.08
2023-05-29T14:04:36.449Z,34.27
2023-05-29T14:07:03.150Z,34.08
2023-05-29T14:09:29.752Z,34.25
2023-05-29T14:11:58.266Z,34.21
2023-05-29T14:14:26.127Z,34.53
2023-05-29T14:16:53.397Z,34.40
2023-05-29T14:19:20.373Z,34.49
2023-05-29T14:21:46.934Z,34.32
2023-05-29T14:24:14.502Z,34.60
2023-05-29T14:26:42.588Z,34.26
2023-05-29T14:29:14.246Z,34.42
2023-05-29T14:31:45.100Z,34.48
2023-05-29T14:34:12.956Z,34.44
2023-05-29T14:36:40.916Z,34.50
2023-05-29T14:39:08.088Z,34.32
2023-05-29T14:41:36.392Z,34.32
2023-05-29T14:44:03.455Z,34.55
2023-05-29T14:46:32.894Z,34.45
2023-05-29T14:49:01.242Z,34.59
2023-05-29T14:51:28.600Z,34.52
2023-05-29T14:53:55.759Z,34.62
2023-05-29T14:56:22.407Z,34.44
2023-05-29T14:58:49.454Z,34.24
2023-05-29T15:01:19.175Z,34.29
2023-05-29T15:03:46.492Z,34.85
2023-05-29T15:06:13.815Z,34.77
2023-05-29T15:08:43.210Z,34.65
2023-05-29T15:11:10.890Z,34.44
2023-05-29T15:13:37.499Z,34.81
2023-05-29T15:16:05.090Z,34.94
2023-05-29T15:18:32.237Z,34.99
2023-05-29T15:20:59.147Z,35.03
2023-05-29T15:23:28.463Z,34.54
2023-05-29T15:25:55.298Z,34.67
2023-05-29T15:28:22.560Z,34.91
2023-05-29T15:30:49.633Z,34.55
2023-05-29T15:33:16.406Z,34.81
2023-05-29T15:35:43.747Z,34.86
2023-05-29T15:38:13.611Z,34.66
2023-05-29T15:40:41.574Z,34.77
2023-05-29T15:43:08.391Z,34.23
2023-05-29T15:45:34.984Z,34.51
2023-05-29T15:48:01.620Z,34.44
2023-05-29T15:50:28.450Z,34.71
2023-05-29T15:52:56.520Z,34.54
2023-05-29T15:55:24.444Z,34.50
2023-05-29T15:57:51.438Z,34.49
2023-05-29T16:00:18.729Z,34.59
2023-05-29T16:02:45.644Z,34.41
2023-05-29T16:05:12.627Z,34.42
2023-05-29T16:07:39.861Z,34.32
2023-05-29T16:10:07.221Z,34.23
2023-05-29T16:12:34.207Z,34.59
2023-05-29T16:15:01.174Z,34.75
2023-05-29T16:17:28.914Z,34.51
2023-05-29T16:19:57.201Z,34.32
2023-05-29T16:22:39.829Z,34.44
2023-05-29T16:25:07.985Z,34.20
2023-05-29T16:27:34.783Z,34.09
2023-05-29T16:30:01.758Z,34.23
2023-05-29T16:32:29.151Z,34.28
2023-05-29T16:34:55.965Z,34.04
2023-05-29T16:37:22.746Z,33.93
2023-05-29T16:39:49.322Z,34.04
2023-05-29T16:42:16.361Z,34.05
2023-05-29T16:44:44.010Z,34.47
2023-05-29T16:47:10.565Z,34.39
2023-05-29T16:49:37.143Z,34.01
2023-05-29T16:52:04.310Z,34.05
2023-05-29T16:54:31.975Z,34.19
2023-05-29T16:56:58.601Z,33.63
2023-05-29T16:59:25.269Z,33.73
2023-05-29T17:01:51.904Z,33.67
2023-05-29T17:04:19.184Z,33.62
2023-05-29T17:06:46.834Z,33.83
2023-05-29T17:09:14.331Z,33.66
2023-05-29T17:11:41.174Z,33.54
2023-05-29T17:14:07.764Z,33.67
2023-05-29T17:16:34.350Z,33.74
2023-05-29T17:19:00.984Z,33.67
2023-05-29T17:21:27.558Z,33.42
2023-05-29T17:23:56.024Z,33.58
2023-05-29T17:26:25.987Z,33.42
2023-05-29T17:28:52.610Z,33.57
2023-05-29T17:31:19.252Z,33.56
2023-05-29T17:33:46.263Z,33.50
2023-05-29T17:36:13.512Z,33.22
2023-05-29T17:38:40.404Z,33.06
2023-05-29T17:41:07.407Z,33.02
2023-05-29T17:43:34.234Z,33.16
2023-05-29T17:46:01.483Z,32.73
2023-05-29T17:48:28.106Z,33.07
2023-05-29T17:50:54.678Z,33.01
2023-05-29T17:53:21.729Z,32.99
2023-05-29T17:55:48.438Z,32.93
2023-05-29T17:58:15.034Z,32.93
2023-05-29T18:00:41.611Z,33.10
2023-05-29T18:03:08.556Z,32.57
2023-05-29T18:05:35.138Z,32.71
2023-05-29T18:08:01.725Z,32.73
2023-05-29T18:10:29.560Z,32.51
2023-05-29T18:12:56.226Z,32.47
2023-05-29T18:15:23.255Z,32.71
2023-05-29T18:17:49.894Z,32.62
2023-05-29T18:20:19.504Z,32.36
2023-05-29T18:22:46.424Z,32.39
2023-05-29T18:25:15.464Z,32.74
2023-05-29T18:27:42.064Z,32.68
2023-05-29T18:30:09.299Z,32.38
2023-05-29T18:32:38.096Z,32.53
2023-05-29T18:35:05.341Z,32.64
2023-05-29T18:37:32.086Z,32.53
2023-05-29T18:39:58.838Z,32.38
2023-05-29T18:42:27.028Z,32.68
2023-05-29T18:44:56.225Z,32.35
2023-05-29T18:47:22.844Z,32.22
2023-05-29T18:49:49.552Z,32.48
2023-05-29T18:52:16.206Z,32.45
2023-05-29T18:54:42.795Z,32.53
2023-05-29T18:57:09.542Z,32.21
2023-05-29T18:59:36.223Z,32.53
2023-05-29T19:02:02.917Z,32.32
2023-05-29T19:04:30.022Z,32.05
2023-05-29T19:06:57.864Z,32.21
2023-05-29T19:09:25.690Z,31.83
2023-05-29T19:11:52.226Z,31.87
2023-05-29T19:14:18.815Z,32.05
2023-05-29T19:16:45.485Z,32.07
2023-05-29T19:19:12.055Z,31.88
2023-05-29T19:21:39.026Z,31.90
2023-05-29T19:24:05.903Z,32.05
2023-05-29T19:26:35.398Z,31.90
2023-05-29T19:29:02.562Z,32.03
2023-05-29T19:31:29.801Z,32.06
2023-05-29T19:33:57.001Z,31.97
2023-05-29T19:36:25.092Z,31.74
2023-05-29T19:38:52.535Z,31.82
2023-05-29T19:41:20.390Z,31.96
2023-05-29T19:43:47.004Z,32.04
2023-05-29T19:46:13.684Z,31.72
2023-05-29T19:48:40.971Z,31.68
2023-05-29T19:51:08.286Z,31.90
2023-05-29T19:53:35.456Z,32.18
2023-05-29T19:56:02.098Z,31.80
2023-05-29T19:58:28.714Z,31.83
2023-05-29T20:00:57.064Z,32.02
2023-05-29T20:03:23.936Z,31.99
2023-05-29T20:05:51.127Z,32.01
2023-05-29T20:08:17.861Z,32.08
2023-05-29T20:10:47.896Z,31.98
2023-05-29T20:13:18.920Z,32.00
2023-05-29T20:15:45.625Z,32.12
2023-05-29T20:18:12.290Z,32.11
2023-05-29T20:20:39.115Z,31.85
2023-05-29T20:23:05.690Z,32.03
2023-05-29T20:25:32.484Z,32.14
2023-05-29T20:27:59.143Z,32.23
2023-05-29T20:30:25.833Z,31.94
2023-05-29T20:32:52.435Z,32.61
2023-05-29T20:35:21.973Z,32.99
2023-05-29T20:37:53.093Z,33.26
2023-05-29T20:40:20.906Z,33.14
2023-05-29T20:42:48.040Z,33.06
2023-05-29T20:45:15.654Z,33.36
2023-05-29T20:47:45.295Z,33.00
2023-05-29T20:50:12.521Z,33.31
2023-05-29T20:52:39.291Z,33.11
2023-05-29T20:55:06.586Z,33.38
2023-05-29T20:57:33.334Z,33.10
2023-05-29T21:00:00.015Z,33.47
2023-05-29T21:02:27.106Z,33.29
2023-05-29T21:04:53.809Z,33.23
2023-05-29T21:07:20.592Z,33.41
2023-05-29T21:09:47.136Z,33.16
2023-05-29T21:12:13.854Z,33.20
2023-05-29T21:14:40.428Z,33.50
2023-05-29T21:17:07.148Z,33.48
2023-05-29T21:19:33.744Z,33.30
2023-05-29T21:22:01.075Z,33.37
2023-05-29T21:24:27.715Z,33.69
2023-05-29T21:26:54.279Z,33.38
2023-05-29T21:29:20.996Z,33.43
2023-05-29T21:31:48.291Z,33.63
2023-05-29T21:34:15.123Z,33.40
2023-05-29T21:36:41.822Z,33.72
2023-05-29T21:39:08.691Z,33.47
2023-05-29T21:41:35.547Z,33.80
2023-05-29T21:44:02.441Z,33.76
2023-05-29T21:46:29.023Z,33.79
2023-05-29T21:48:55.801Z,33.84
2023-05-29T21:51:23.132Z,33.86
2023-05-29T21:53:49.690Z,33.48
2023-05-29T21:56:16.479Z,33.90
2023-05-29T21:58:43.114Z,33.77
2023-05-29T22:01:10.328Z,33.78
2023-05-29T22:03:36.977Z,33.88
2023-05-29T22:06:03.667Z,33.98
2023-05-29T22:08:44.361Z,33.69
2023-05-29T22:11:11.393Z,33.76
2023-05-29T22:13:38.194Z,33.63
2023-05-29T22:16:05.405Z,34.07
2023-05-29T22:18:33.820Z,33.94
2023-05-29T22:21:04.872Z,33.79
2023-05-29T22:23:32.527Z,33.96
2023-05-29T22:26:01.701Z,33.91
2023-05-29T22:28:29.213Z,33.71
2023-05-29T22:30:57.124Z,34.08
2023-05-29T22:33:24.420Z,33.79
2023-05-29T22:35:51.766Z,34.04
2023-05-29T22:38:19.527Z,34.16
2023-05-29T22:40:46.136Z,34.04
2023-05-29T22:43:13.491Z,34.12
2023-05-29T22:45:40.095Z,34.16
2023-05-29T22:48:06.824Z,34.24
2023-05-29T22:50:33.518Z,34.27
2023-05-29T22:53:01.122Z,34.32
2023-05-29T22:55:28.347Z,33.90
2023-05-29T22:57:56.617Z,33.96
2023-05-29T23:00:25.077Z,34.22
2023-05-29T23:02:51.791Z,34.19
2023-05-29T23:05:19.360Z,33.85
2023-05-29T23:07:45.998Z,34.05
2023-05-29T23:10:12.587Z,33.92
2023-05-29T23:12:39.367Z,34.32
2023-05-29T23:15:07.651Z,34.36
2023-05-29T23:17:34.250Z,34.25
2023-05-29T23:20:01.685Z,34.27
2023-05-29T23:22:28.534Z,34.50
2023-05-29T23:24:55.100Z,34.47
2023-05-29T23:27:21.782Z,34.10
2023-05-29T23:29:48.534Z,34.44
2023-05-29T23:32:15.253Z,34.56
2023-05-29T23:34:42.063Z,34.57
2023-05-29T23:37:08.654Z,34.29
2023-05-29T23:39:35.164Z,34.25
2023-05-29T23:42:02.077Z,34.49
2023-05-29T23:44:28.821Z,34.33
2023-05-29T23:46:55.657Z,34.59
2023-05-29T23:49:23.155Z,34.30
2023-05-29T23:51:49.875Z,34.34
2023-05-29T23:54:16.653Z,34.47
2023-05-29T23:56:43.305Z,34.18
2023-05-29T23:59:10.802Z,34.30
